Time;durP1;ratioP1;P1;durP2;ratioP2;P2;SDS_P1;SDS_P2;PMS_P1;PMS_P2;Temp;Humidity;BMP_temperature;BMP_pressure;BME280_temperature;BME280_humidity;BME280_pressure;Samples;Min_cycle;Max_cycle;Signal;HPM_P1;HPM_P2
2022/05/21 00:01:37;;;;;;;4.12;2.78;;;;;;;20.42;56.87;99697.16;4362686;32;34712;-72
2022/05/21 00:04:05;;;;;;;5.03;3.15;;;;;;;20.40;56.80;99697.47;4361983;32;33484;-73
2022/05/21 00:06:33;;;;;;;6.07;3.08;;;;;;;20.06;57.70;99692.56;4362761;32;33792;-73
2022/05/21 00:09:00;;;;;;;4.47;2.97;;;;;;;19.77;58.54;99680.03;4362385;32;33803;-73
2022/05/21 00:11:28;;;;;;;4.80;3.08;;;;;;;19.93;58.04;99682.41;4361900;32;33636;-72
2022/05/21 00:13:56;;;;;;;4.60;3.08;;;;;;;20.15;57.66;99687.09;4347172;32;33371;-72
2022/05/21 00:16:24;;;;;;;5.25;2.70;;;;;;;19.86;58.46;99688.37;4347585;33;34848;-73
2022/05/21 00:18:51;;;;;;;4.75;3.28;;;;;;;19.87;58.50;99684.50;4347452;33;34311;-74
2022/05/21 00:21:19;;;;;;;4.37;3.08;;;;;;;19.91;58.39;99685.47;4334022;33;33191;-73
2022/05/21 00:23:46;;;;;;;3.78;2.92;;;;;;;19.74;58.90;99675.16;4347471;32;34415;-72
2022/05/21 00:26:15;;;;;;;4.25;3.40;;;;;;;19.72;59.01;99665.56;4347528;33;33769;-73
2022/05/21 00:28:44;;;;;;;4.95;3.20;;;;;;;19.61;59.25;99663.06;4334055;33;34829;-73
2022/05/21 00:31:14;;;;;;;4.35;3.00;;;;;;;19.87;58.54;99662.47;4334120;33;34518;-73
2022/05/21 00:33:43;;;;;;;4.25;2.92;;;;;;;19.80;58.67;99660.13;4347348;33;34349;-73
2022/05/21 00:36:11;;;;;;;3.72;2.75;;;;;;;19.76;58.77;99667.41;4347636;33;34437;-73
2022/05/21 00:38:39;;;;;;;4.10;2.87;;;;;;;19.66;59.05;99665.66;4356295;32;35223;-73
2022/05/21 00:41:09;;;;;;;5.72;3.03;;;;;;;19.63;59.14;99662.72;4348767;32;33799;-73
2022/05/21 00:43:49;;;;;;;4.35;3.00;;;;;;;19.65;58.99;99644.78;4362322;32;33564;-72
2022/05/21 00:46:21;;;;;;;4.25;2.85;;;;;;;19.70;58.93;99646.62;4348832;32;34540;-74
2022/05/21 00:49:03;;;;;;;5.55;3.10;;;;;;;19.43;59.53;99640.06;4362377;32;34152;-73
2022/05/21 00:51:58;;;;;;;3.25;2.75;;;;;;;19.55;59.26;99636.78;4362212;32;33900;-74
2022/05/21 00:54:31;;;;;;;4.82;3.22;;;;;;;19.73;58.84;99650.69;4348586;32;33394;-72
2022/05/21 00:57:09;;;;;;;7.15;3.30;;;;;;;19.52;59.37;99653.06;4348889;32;34628;-73
2022/05/21 00:59:50;;;;;;;4.40;3.05;;;;;;;19.67;59.02;99664.56;4362014;32;33477;-72
2022/05/21 01:02:40;;;;;;;6.18;3.47;;;;;;;19.37;59.88;99677.09;4362218;32;33872;-74
2022/05/21 01:05:11;;;;;;;4.57;3.30;;;;;;;19.67;59.15;99677.50;4336366;32;33472;-73
2022/05/21 01:07:41;;;;;;;5.28;3.60;;;;;;;19.82;58.76;99679.91;4355184;32;34688;-74
2022/05/21 01:10:09;;;;;;;3.65;3.08;;;;;;;19.53;59.72;99665.72;4333610;33;34118;-74
2022/05/21 01:12:39;;;;;;;4.62;3.55;;;;;;;19.25;60.63;99660.28;4333559;33;34434;-73
2022/05/21 01:15:12;;;;;;;4.75;3.30;;;;;;;19.23;60.73;99659.78;4333685;33;34194;-73
2022/05/21 01:17:39;;;;;;;3.47;3.00;;;;;;;19.15;61.00;99658.56;4346872;33;34742;-73
2022/05/21 01:20:13;;;;;;;5.60;3.70;;;;;;;19.19;60.79;99670.59;4333663;33;33928;-73
2022/05/21 01:22:41;;;;;;;5.50;3.40;;;;;;;19.06;61.32;99674.97;4333588;33;33569;-74
2022/05/21 01:25:11;;;;;;;4.47;3.45;;;;;;;19.37;60.55;99676.25;4333527;33;33324;-74
2022/05/21 01:27:39;;;;;;;4.07;3.53;;;;;;;19.71;59.82;99683.22;4333914;33;34022;-74
2022/05/21 01:30:09;;;;;;;5.07;3.30;;;;;;;19.64;60.05;99676.19;4321504;33;33387;-74
2022/05/21 01:32:37;;;;;;;4.62;3.25;;;;;;;19.49;60.60;99661.97;4346997;33;34642;-73
2022/05/21 01:35:06;;;;;;;4.93;3.58;;;;;;;19.78;59.68;99662.38;4346878;33;34385;-73
2022/05/21 01:37:36;;;;;;;4.50;3.65;;;;;;;19.62;60.27;99663.84;4333881;33;34708;-73
2022/05/21 01:40:04;;;;;;;4.75;3.70;;;;;;;19.42;61.11;99656.91;4347067;32;34221;-74
2022/05/21 01:42:33;;;;;;;4.53;3.45;;;;;;;19.34;61.30;99643.87;4333673;33;34779;-73
2022/05/21 01:45:02;;;;;;;4.62;3.50;;;;;;;19.04;62.41;99655.22;4346422;33;33363;-75
2022/05/21 01:47:34;;;;;;;5.87;3.70;;;;;;;18.24;65.80;99657.28;4346955;33;33732;-74
2022/05/21 01:50:02;;;;;;;5.20;3.87;;;;;;;18.14;66.72;99657.50;4321910;33;35307;-74
2022/05/21 01:52:29;;;;;;;5.18;3.70;;;;;;;18.82;63.89;99669.69;4346582;32;34773;-74
2022/05/21 01:54:59;;;;;;;5.43;3.60;;;;;;;18.95;63.51;99681.00;4347317;32;34046;-73
2022/05/21 01:57:26;;;;;;;6.37;4.20;;;;;;;19.27;62.75;99702.06;4346793;33;33995;-73
2022/05/21 01:59:54;;;;;;;4.35;3.55;;;;;;;19.33;62.86;99725.59;4346530;33;34111;-73
2022/05/21 02:02:21;;;;;;;5.60;4.00;;;;;;;19.45;62.90;99794.66;4356578;32;34046;-73
2022/05/21 02:04:49;;;;;;;5.70;4.05;;;;;;;19.32;63.47;99822.97;4361477;32;33437;-74
2022/05/21 02:07:17;;;;;;;5.70;3.92;;;;;;;19.54;62.09;99802.19;4360770;32;33744;-73
2022/05/21 02:09:44;;;;;;;4.72;4.00;;;;;;;18.90;64.28;99766.31;4361494;32;35100;-73
2022/05/21 02:12:15;;;;;;;6.53;3.90;;;;;;;19.29;63.25;99814.50;4361367;32;33912;-74
2022/05/21 02:14:43;;;;;;;4.97;3.60;;;;;;;19.19;63.89;99819.09;4361188;32;32931;-75
2022/05/21 02:17:11;;;;;;;5.03;4.03;;;;;;;19.28;63.79;99827.47;4347976;32;34026;-74
2022/05/21 02:19:39;;;;;;;5.90;4.10;;;;;;;19.75;63.25;99835.63;4361225;32;33850;-74
2022/05/21 02:22:06;;;;;;;6.15;4.30;;;;;;;19.86;65.25;99826.03;4360952;32;33919;-73
2022/05/21 02:24:34;;;;;;;6.05;4.40;;;;;;;19.83;65.79;99834.91;4363033;32;33143;-73
2022/05/21 02:27:01;;;;;;;5.40;4.12;;;;;;;20.32;64.62;99821.41;4349821;32;34633;-71
2022/05/21 02:29:29;;;;;;;5.95;4.78;;;;;;;20.54;63.94;99806.81;4363255;32;33984;-75
2022/05/21 02:31:56;;;;;;;7.78;4.22;;;;;;;20.46;64.08;99820.22;4362964;32;34067;-73
2022/05/21 02:34:24;;;;;;;7.18;4.22;;;;;;;20.58;63.51;99825.22;4362690;32;34235;-74
2022/05/21 02:39:37;;;;;;;6.30;4.25;;;;;;;20.41;63.61;99819.53;4363244;32;34159;-73
2022/05/21 02:42:42;;;;;;;5.80;3.92;;;;;;;20.61;62.45;99830.09;4363136;32;33619;-74
2022/05/21 02:44:54;;;;;;;5.30;4.10;;;;;;;20.52;62.89;99837.47;4362961;32;33464;-74
2022/05/21 02:47:22;;;;;;;6.05;4.25;;;;;;;20.84;61.63;99839.16;4337164;32;35248;-74
2022/05/21 02:49:49;;;;;;;4.47;3.62;;;;;;;20.52;62.33;99842.13;4336857;32;34322;-75
2022/05/21 02:52:17;;;;;;;5.20;3.97;;;;;;;20.74;61.74;99844.94;4362951;32;33694;-74
2022/05/21 02:54:44;;;;;;;6.82;3.87;;;;;;;20.33;63.23;99850.59;4349170;32;33861;-74
2022/05/21 02:57:12;;;;;;;5.22;4.05;;;;;;;20.79;61.92;99846.75;4349828;32;33743;-72
2022/05/21 02:59:40;;;;;;;6.97;4.40;;;;;;;20.79;61.70;99858.59;4354570;32;34981;-72
2022/05/21 03:02:08;;;;;;;5.80;3.83;;;;;;;20.48;63.07;99861.25;4334573;33;34555;-73
2022/05/21 03:04:35;;;;;;;7.80;4.85;;;;;;;20.53;63.18;99857.56;4334186;32;34274;-71
2022/05/21 03:07:03;;;;;;;6.65;4.78;;;;;;;20.54;63.82;99865.53;4348079;33;34031;-74
2022/05/21 03:10:32;;;;;;;5.72;4.18;;;;;;;20.57;64.06;99853.06;4348120;33;34951;-74
2022/05/21 03:12:28;;;;;;;5.00;4.00;;;;;;;20.46;64.43;99844.22;4335619;33;33915;-72
2022/05/21 03:14:56;;;;;;;6.37;3.90;;;;;;;20.04;66.12;99829.75;4347713;33;33173;-70
2022/05/21 03:17:27;;;;;;;6.25;3.97;;;;;;;20.12;66.11;99825.47;4348055;33;34696;-72
2022/05/21 03:19:54;;;;;;;4.43;3.47;;;;;;;20.28;65.56;99808.25;4352798;32;34289;-72
2022/05/21 03:22:22;;;;;;;6.55;3.50;;;;;;;19.90;67.07;99813.28;4362867;32;33864;-73
2022/05/21 03:24:49;;;;;;;4.97;3.28;;;;;;;20.53;64.70;99827.25;4362651;32;33540;-73
2022/05/21 03:27:17;;;;;;;4.32;2.90;;;;;;;20.74;64.01;99833.91;4362195;32;33970;-73
2022/05/21 03:29:45;;;;;;;5.45;2.78;;;;;;;21.11;62.58;99831.84;4349356;32;34039;-73
2022/05/21 03:32:12;;;;;;;4.85;2.33;;;;;;;21.20;62.04;99829.94;4362599;32;33992;-72
2022/05/21 03:34:40;;;;;;;3.58;2.15;;;;;;;20.78;63.28;99806.53;4356172;32;33897;-73
2022/05/21 03:37:08;;;;;;;4.03;2.45;;;;;;;20.91;62.74;99816.66;4334689;33;33977;-72
2022/05/21 03:39:35;;;;;;;3.60;2.30;;;;;;;21.16;61.72;99815.12;4347990;33;34311;-72
2022/05/21 03:42:03;;;;;;;3.30;2.30;;;;;;;21.36;61.03;99824.81;4347594;33;33842;-74
2022/05/21 03:44:31;;;;;;;3.53;2.40;;;;;;;21.55;60.53;99804.44;4347766;33;33506;-74
2022/05/21 03:46:58;;;;;;;3.47;1.62;;;;;;;21.06;62.02;99794.19;4334620;33;34826;-76
2022/05/21 03:49:27;;;;;;;3.42;2.25;;;;;;;21.17;61.66;99750.56;4333884;33;34013;-75
2022/05/21 03:51:54;;;;;;;2.92;2.08;;;;;;;21.05;61.81;99759.44;4347677;33;34110;-76
2022/05/21 03:54:23;;;;;;;2.42;1.83;;;;;;;21.01;62.13;99746.59;4347759;33;33697;-74
2022/05/21 03:56:51;;;;;;;2.90;1.85;;;;;;;20.69;62.78;99729.25;4361543;32;33929;-77
2022/05/21 03:59:19;;;;;;;1.65;1.55;;;;;;;20.83;62.75;99705.16;4362624;32;34329;-76
2022/05/21 04:01:46;;;;;;;2.58;1.77;;;;;;;20.71;61.94;99702.19;4362247;32;34048;-74
2022/05/21 04:04:15;;;;;;;2.28;1.70;;;;;;;20.53;63.09;99684.72;4361491;32;33255;-75
2022/05/21 04:06:42;;;;;;;2.55;1.80;;;;;;;20.87;60.86;99684.09;4362410;32;33676;-76
2022/05/21 04:09:10;;;;;;;2.30;1.80;;;;;;;20.68;61.25;99689.84;4348922;32;34403;-76
2022/05/21 04:11:37;;;;;;;2.58;1.70;;;;;;;21.03;60.17;99700.19;4352408;32;34718;-75
2022/05/21 04:14:07;;;;;;;2.47;1.50;;;;;;;20.45;62.14;99696.50;4348603;32;34019;-76
2022/05/21 04:16:42;;;;;;;2.90;1.52;;;;;;;20.40;61.80;99697.47;4348516;32;33682;-75
2022/05/21 04:19:09;;;;;;;3.80;1.65;;;;;;;20.96;60.18;99686.06;4354929;32;34289;-77
2022/05/21 04:21:37;;;;;;;2.80;1.50;;;;;;;20.93;59.91;99693.03;4347128;33;33801;-77
2022/05/21 04:24:05;;;;;;;1.83;1.30;;;;;;;20.81;60.31;99681.81;4347127;33;33512;-74
2022/05/21 04:26:32;;;;;;;2.17;1.40;;;;;;;21.07;59.45;99670.84;4347787;33;33959;-76
2022/05/21 04:29:00;;;;;;;2.55;1.55;;;;;;;21.08;59.13;99675.25;4347368;32;34244;-75
2022/05/21 04:31:28;;;;;;;2.33;1.40;;;;;;;21.49;58.17;99683.13;4347270;33;33919;-74
2022/05/21 04:33:59;;;;;;;2.70;1.48;;;;;;;21.55;57.99;99710.56;4347042;32;33522;-73
2022/05/21 04:36:27;;;;;;;1.75;1.30;;;;;;;21.37;58.51;99723.50;4334265;33;33972;-71
2022/05/21 04:38:54;;;;;;;3.10;1.65;;;;;;;21.64;57.67;99705.84;4347583;33;34042;-73
2022/05/21 04:41:23;;;;;;;2.42;1.67;;;;;;;22.16;57.67;99733.50;4347824;33;34607;-72
2022/05/21 04:43:51;;;;;;;2.87;1.45;;;;;;;22.52;56.21;99752.47;4347075;33;34357;-70
2022/05/21 04:46:19;;;;;;;1.58;1.20;;;;;;;22.36;56.49;99761.62;4333226;33;33576;-74
2022/05/21 04:48:47;;;;;;;3.30;1.30;;;;;;;22.73;55.16;99774.69;4354838;32;35074;-76
2022/05/21 04:51:32;;;;;;;1.87;1.35;;;;;;;22.75;55.33;99788.22;4361764;32;34065;-71
2022/05/21 04:53:59;;;;;;;2.12;1.60;;;;;;;22.17;57.87;99775.75;4351408;32;33713;-76
2022/05/21 04:56:27;;;;;;;1.77;1.25;;;;;;;22.68;55.84;99785.16;4347297;33;34054;-70
2022/05/21 04:59:09;;;;;;;2.55;1.58;;;;;;;22.81;55.67;99794.38;4347303;33;34260;-75
2022/05/21 05:01:37;;;;;;;3.95;1.65;;;;;;;22.20;59.60;99781.44;4347274;33;34129;-75
2022/05/21 05:04:06;;;;;;;4.50;2.70;;;;;;;22.05;59.00;99781.91;4343667;32;34106;-68
2022/05/21 05:06:35;;;;;;;2.55;1.45;;;;;;;21.94;59.73;99780.59;4353712;32;33707;-73
2022/05/21 05:09:03;;;;;;;2.55;1.55;;;;;;;22.16;59.35;99793.44;4347186;32;34212;-74
2022/05/21 05:11:30;;;;;;;1.95;1.40;;;;;;;22.15;59.82;99808.41;4353527;32;34618;-75
2022/05/21 05:13:58;;;;;;;2.17;1.52;;;;;;;22.16;59.29;99802.56;4359823;32;34218;-77
2022/05/21 05:16:26;;;;;;;2.50;1.90;;;;;;;22.13;59.47;99794.91;4360965;32;33566;-72
2022/05/21 05:18:53;;;;;;;2.40;1.70;;;;;;;22.25;59.70;99797.06;4341210;33;33883;-71
2022/05/21 05:21:21;;;;;;;2.35;1.60;;;;;;;22.50;58.34;99815.59;4346735;32;33950;-72
2022/05/21 05:23:48;;;;;;;2.45;1.73;;;;;;;22.36;59.07;99811.37;4356904;32;33855;-69
2022/05/21 05:26:16;;;;;;;2.62;1.62;;;;;;;22.10;59.75;99820.44;4349358;32;35040;-73
2022/05/21 05:28:45;;;;;;;2.78;1.98;;;;;;;22.21;59.61;99835.56;4336206;33;33932;-73
2022/05/21 05:31:12;;;;;;;3.95;1.70;;;;;;;22.29;59.24;99843.09;4347247;33;34093;-81
2022/05/21 05:33:40;;;;;;;3.00;1.67;;;;;;;22.28;60.20;99848.94;4358825;32;33115;-72
2022/05/21 05:36:08;;;;;;;2.22;1.60;;;;;;;22.21;59.78;99854.91;4339762;32;34860;-80
2022/05/21 05:38:35;;;;;;;3.35;1.35;;;;;;;22.35;58.96;99862.25;4334148;32;35065;-87
2022/05/21 05:41:06;;;;;;;2.92;1.65;;;;;;;22.27;59.29;99859.19;4351825;32;33881;-73
2022/05/21 05:43:34;;;;;;;2.47;1.73;;;;;;;21.98;60.23;99861.72;4352262;32;33041;-71
2022/05/21 05:46:01;;;;;;;2.87;1.77;;;;;;;22.03;59.72;99848.56;4346466;32;34482;-83
2022/05/21 05:48:30;;;;;;;2.58;1.70;;;;;;;21.79;61.25;99867.50;4351140;32;33927;-85
2022/05/21 05:50:59;;;;;;;3.10;1.80;;;;;;;21.76;61.52;99843.31;4332719;32;34532;-77
2022/05/21 05:53:26;;;;;;;2.87;1.87;;;;;;;21.65;62.32;99837.28;4346692;32;34084;-88
2022/05/21 05:55:54;;;;;;;3.15;1.85;;;;;;;22.26;60.25;99835.41;4349118;32;34649;-74
2022/05/21 06:01:10;;;;;;;2.03;1.50;;;;;;;21.62;62.22;99835.97;4351762;32;34731;-71
2022/05/21 06:03:38;;;;;;;2.67;1.50;;;;;;;22.00;60.71;99829.03;4362097;32;33584;-72
2022/05/21 06:06:06;;;;;;;1.95;1.30;;;;;;;21.85;61.17;99838.59;4362021;32;33960;-71
2022/05/21 06:08:34;;;;;;;2.58;1.35;;;;;;;21.93;59.13;99846.09;4362481;32;34230;-72
2022/05/21 06:11:03;;;;;;;2.62;1.50;;;;;;;21.87;59.07;99830.81;4362307;32;33794;-72
2022/05/21 06:13:30;;;;;;;2.03;1.30;;;;;;;22.07;57.83;99830.22;4361875;32;33970;-72
2022/05/21 06:15:59;;;;;;;1.30;1.10;;;;;;;21.75;59.23;99841.66;4361982;32;33957;-70
2022/05/21 06:18:27;;;;;;;2.25;1.42;;;;;;;22.01;58.49;99861.03;4362240;32;34988;-70
2022/05/21 06:21:01;;;;;;;1.33;1.00;;;;;;;22.17;58.63;99862.22;4348210;32;33905;-70
2022/05/21 06:23:30;;;;;;;1.48;1.20;;;;;;;21.63;61.51;99875.44;4348197;32;32767;-71
2022/05/21 06:25:59;;;;;;;2.87;1.30;;;;;;;22.04;61.68;99872.28;4361933;32;34796;-70
2022/05/21 06:28:28;;;;;;;2.08;1.30;;;;;;;21.62;63.60;99882.06;4362241;32;34242;-73
2022/05/21 06:30:56;;;;;;;3.20;1.25;;;;;;;21.69;63.61;99869.44;4348407;32;34715;-73
2022/05/21 06:33:29;;;;;;;2.95;1.10;;;;;;;21.29;65.21;99868.59;4347133;32;33774;-72
2022/05/21 06:36:10;;;;;;;1.58;1.08;;;;;;;21.36;65.02;99857.94;4376873;32;34171;-73
2022/05/21 06:38:38;;;;;;;1.92;1.40;;;;;;;21.19;66.28;99853.16;4376765;32;35127;-73
2022/05/21 06:41:07;;;;;;;2.67;1.30;;;;;;;21.07;66.78;99859.25;4376753;32;34016;-70
2022/05/21 06:43:35;;;;;;;1.27;1.05;;;;;;;21.13;66.67;99846.13;4376689;32;33401;-71
2022/05/21 06:46:03;;;;;;;1.40;1.15;;;;;;;20.94;67.65;99846.34;4376476;32;33987;-71
2022/05/21 06:48:30;;;;;;;1.87;1.40;;;;;;;20.85;67.41;99840.78;4376756;32;34116;-71
2022/05/21 06:51:05;;;;;;;3.95;1.42;;;;;;;21.07;66.79;99828.88;4376929;32;33807;-72
2022/05/21 06:53:35;;;;;;;1.83;1.35;;;;;;;20.75;68.20;99831.97;4376607;32;34198;-70
2022/05/21 06:56:12;;;;;;;2.33;1.52;;;;;;;21.05;67.42;99817.34;4376574;32;34725;-72
2022/05/21 06:58:39;;;;;;;3.30;1.65;;;;;;;20.92;67.96;99810.00;4376457;32;35069;-72
2022/05/21 07:01:07;;;;;;;2.30;1.58;;;;;;;20.85;67.82;99793.09;4376261;32;34609;-71
2022/05/21 07:03:35;;;;;;;2.85;1.62;;;;;;;20.95;67.99;99798.34;4364442;32;33624;-68
2022/05/21 07:08:50;;;;;;;2.65;1.77;;;;;;;20.60;70.13;99794.56;4360588;32;34107;-75
2022/05/21 07:11:18;;;;;;;3.03;1.70;;;;;;;20.85;69.29;99793.91;4362500;32;34420;-71
2022/05/21 07:13:45;;;;;;;1.92;1.58;;;;;;;20.38;73.26;99790.66;4362606;32;34069;-72
2022/05/21 07:16:13;;;;;;;2.47;1.80;;;;;;;20.35;72.11;99793.25;4362160;32;34838;-69
2022/05/21 07:18:41;;;;;;;3.67;1.87;;;;;;;20.54;72.31;99798.53;4361608;32;34950;-69
2022/05/21 07:21:13;;;;;;;3.92;2.30;;;;;;;20.81;71.81;99798.41;4362212;32;34683;-71
2022/05/21 07:23:41;;;;;;;3.85;2.25;;;;;;;21.07;70.97;99800.50;4348947;32;34328;-72
2022/05/21 07:26:09;;;;;;;4.50;2.50;;;;;;;21.20;70.92;99804.28;4362698;32;33947;-73
2022/05/21 07:28:37;;;;;;;3.95;2.12;;;;;;;21.18;70.92;99801.84;4362420;32;33787;-72
2022/05/21 07:31:05;;;;;;;3.25;1.87;;;;;;;21.61;69.63;99803.16;4348859;32;34863;-75
2022/05/21 07:33:38;;;;;;;2.10;1.70;;;;;;;21.95;69.01;99807.12;4349615;32;33378;-72
2022/05/21 07:36:05;;;;;;;2.87;1.90;;;;;;;22.36;65.68;99814.16;4362311;32;34048;-72
2022/05/21 07:38:33;;;;;;;4.35;1.75;;;;;;;22.53;65.90;99805.84;4362485;32;34454;-71
2022/05/21 07:41:01;;;;;;;3.20;1.90;;;;;;;22.65;64.21;99813.44;4362396;32;34627;-72
2022/05/21 07:43:30;;;;;;;2.55;1.60;;;;;;;22.80;63.40;99812.13;4362356;32;33562;-72
2022/05/21 07:45:58;;;;;;;3.25;1.77;;;;;;;22.77;65.64;99823.84;4361884;32;33968;-71
2022/05/21 07:48:27;;;;;;;2.22;2.00;;;;;;;23.24;62.75;99830.25;4362267;32;34204;-74
2022/05/21 07:50:59;;;;;;;3.15;1.85;;;;;;;23.27;63.19;99831.53;4361954;32;34150;-70
2022/05/21 07:53:32;;;;;;;2.30;1.65;;;;;;;23.86;60.49;99841.84;4362191;32;33259;-72
2022/05/21 07:56:00;;;;;;;2.40;1.75;;;;;;;23.57;61.36;99856.50;4354951;32;34789;-76
2022/05/21 07:58:29;;;;;;;2.95;1.30;;;;;;;23.96;58.36;99858.06;4347246;33;34289;-77
2022/05/21 08:00:57;;;;;;;3.25;1.55;;;;;;;24.03;59.29;99871.41;4334969;33;33919;-75
2022/05/21 08:03:26;;;;;;;2.75;1.60;;;;;;;24.06;61.76;99881.81;4335312;33;33624;-75
2022/05/21 08:05:55;;;;;;;2.35;1.73;;;;;;;24.32;57.89;99876.09;4348690;33;34097;-73
2022/05/21 08:08:23;;;;;;;3.12;1.90;;;;;;;24.44;56.59;99876.12;4348298;33;34827;-68
2022/05/21 08:10:51;;;;;;;2.83;2.15;;;;;;;24.55;55.90;99873.81;4342360;33;33979;-69
2022/05/21 08:13:19;;;;;;;3.55;2.08;;;;;;;24.32;55.96;99871.34;4348450;33;33653;-75
2022/05/21 08:15:46;;;;;;;2.67;1.90;;;;;;;23.91;57.70;99861.84;4348176;33;33957;-74
2022/05/21 08:18:14;;;;;;;3.28;2.15;;;;;;;24.30;56.83;99870.87;4348184;33;34840;-74
2022/05/21 08:20:42;;;;;;;3.20;1.70;;;;;;;24.50;57.97;99860.16;4348210;33;34070;-71
2022/05/21 08:28:49;;;;;;;3.12;1.90;;;;;;;25.29;52.38;99868.50;4363267;32;35065;-75
2022/05/21 08:31:17;;;;;;;2.45;1.90;;;;;;;24.31;55.10;99846.72;4362717;32;34058;-71
2022/05/21 08:33:45;;;;;;;2.75;1.80;;;;;;;24.96;53.39;99847.94;4363136;32;33721;-72
2022/05/21 08:36:12;;;;;;;5.40;2.40;;;;;;;25.34;54.26;99848.84;4363208;32;34700;-72
2022/05/21 08:38:46;;;;;;;2.80;1.87;;;;;;;25.25;54.31;99857.28;4363077;32;34255;-72
2022/05/21 08:41:22;;;;;;;3.50;2.37;;;;;;;25.23;52.03;99850.47;4354536;32;34761;-71
2022/05/21 08:44:16;;;;;;;3.37;2.08;;;;;;;25.17;52.62;99853.41;4347447;33;34182;-71
2022/05/21 08:47:04;;;;;;;3.03;2.00;;;;;;;25.18;53.08;99849.50;4368677;32;34029;-73
2022/05/21 08:49:53;;;;;;;3.10;2.08;;;;;;;25.20;53.46;99856.69;4364569;32;35144;-71
2022/05/21 08:52:28;;;;;;;2.45;1.90;;;;;;;24.61;55.32;99855.78;4377755;32;33624;-71
2022/05/21 08:54:59;;;;;;;2.53;2.15;;;;;;;24.75;54.76;99861.03;4364549;32;33511;-72
2022/05/21 08:57:46;;;;;;;3.08;2.50;;;;;;;24.43;54.85;99862.59;4377837;32;33998;-70
2022/05/21 09:00:23;;;;;;;3.72;2.35;;;;;;;24.03;55.57;99861.13;4377464;32;34338;-71
2022/05/21 09:02:54;;;;;;;3.35;2.85;;;;;;;23.97;56.44;99850.56;4377485;32;34042;-73
2022/05/21 09:05:23;;;;;;;3.47;2.72;;;;;;;24.59;55.99;99862.84;4361568;32;34188;-70
2022/05/21 09:08:14;;;;;;;5.05;2.70;;;;;;;24.84;56.52;99863.72;4356571;32;33735;-70
2022/05/21 09:10:54;;;;;;;4.10;2.87;;;;;;;25.01;54.21;99860.81;4362526;32;34073;-70
2022/05/21 09:13:30;;;;;;;4.07;2.47;;;;;;;25.39;53.38;99851.38;4362149;32;33896;-69
2022/05/21 09:18:44;;;;;;;3.50;2.42;;;;;;;25.21;51.63;99853.56;4362578;32;33832;-69
2022/05/21 09:21:21;;;;;;;4.10;2.85;;;;;;;25.11;51.53;99854.78;4362937;32;34208;-69
2022/05/21 09:23:53;;;;;;;3.65;2.40;;;;;;;25.60;49.43;99862.41;4349124;32;33983;-69
2022/05/21 09:26:24;;;;;;;3.45;2.50;;;;;;;25.25;49.52;99860.06;4349316;32;33515;-69
2022/05/21 09:28:51;;;;;;;3.97;2.20;;;;;;;24.99;49.36;99868.66;4357897;32;34021;-69
2022/05/21 09:31:29;;;;;;;3.67;2.37;;;;;;;25.10;49.92;99867.06;4347335;32;34317;-69
2022/05/21 09:34:18;;;;;;;3.28;2.50;;;;;;;25.32;47.18;99856.72;4347762;33;33955;-70
2022/05/21 09:36:46;;;;;;;2.45;2.08;;;;;;;25.71;47.17;99858.00;4342548;32;34064;-68
2022/05/21 09:39:38;;;;;;;3.53;2.20;;;;;;;25.38;48.50;99858.91;4362745;32;34757;-69
2022/05/21 09:45:29;;;;;;;6.43;2.30;;;;;;;26.00;47.66;99858.91;4350802;32;34597;-71
2022/05/21 09:48:05;;;;;;;4.35;2.05;;;;;;;26.11;46.89;99865.63;4349420;32;33428;-72
2022/05/21 09:50:45;;;;;;;4.05;2.40;;;;;;;26.01;45.74;99854.19;4362397;32;34636;-70
2022/05/21 09:53:22;;;;;;;2.22;1.70;;;;;;;25.75;44.92;99860.91;4362307;32;34106;-70
2022/05/21 09:56:08;;;;;;;2.40;1.83;;;;;;;26.07;43.95;99858.31;4362384;32;33945;-71
2022/05/21 09:58:41;;;;;;;4.30;1.80;;;;;;;26.52;43.44;99868.41;4361797;32;34396;-70
2022/05/21 10:01:14;;;;;;;5.53;1.80;;;;;;;26.79;42.17;99850.13;4348886;32;34798;-72
2022/05/21 10:03:50;;;;;;;2.22;1.58;;;;;;;27.00;40.40;99872.97;4361948;32;34956;-71
2022/05/21 10:06:22;;;;;;;3.28;1.75;;;;;;;26.86;41.29;99871.78;4349018;32;34763;-71
2022/05/21 10:12:08;;;;;;;3.97;1.55;;;;;;;27.20;40.38;99865.53;4348142;32;33913;-70
2022/05/21 10:14:41;;;;;;;2.40;1.45;;;;;;;27.20;40.97;99853.59;4348482;32;34064;-69
2022/05/21 10:17:21;;;;;;;2.70;1.70;;;;;;;27.54;40.28;99849.31;4348751;32;33986;-71
2022/05/21 10:20:06;;;;;;;3.15;1.80;;;;;;;27.79;38.57;99858.25;4348602;32;33320;-75
2022/05/21 10:22:51;;;;;;;2.45;1.60;;;;;;;26.77;39.81;99856.03;4342516;32;33970;-70
2022/05/21 10:25:26;;;;;;;3.12;1.37;;;;;;;27.01;38.26;99860.66;4345860;33;35001;-74
2022/05/21 10:28:12;;;;;;;2.33;1.67;;;;;;;27.14;37.43;99855.81;4320675;33;33420;-72
2022/05/21 10:31:05;;;;;;;2.40;1.50;;;;;;;27.81;36.55;99850.31;4346147;33;34208;-70
2022/05/21 10:33:47;;;;;;;2.45;1.50;;;;;;;27.84;36.34;99859.97;4332496;33;34588;-79
2022/05/21 10:36:33;;;;;;;2.05;1.33;;;;;;;27.53;36.54;99858.00;4345732;33;33798;-71
2022/05/21 10:39:21;;;;;;;1.40;1.20;;;;;;;27.84;35.45;99862.75;4332354;33;33640;-71
2022/05/21 10:42:00;;;;;;;2.65;1.52;;;;;;;27.72;35.27;99852.50;4345095;33;33149;-71
2022/05/21 10:44:52;;;;;;;1.35;1.23;;;;;;;28.04;35.70;99854.47;4347004;33;34087;-71
2022/05/21 10:47:48;;;;;;;3.75;1.62;;;;;;;27.71;36.42;99841.72;4348219;33;34025;-73
2022/05/21 10:50:27;;;;;;;2.67;1.75;;;;;;;27.22;37.67;99848.50;4347879;33;33882;-71
2022/05/21 10:53:26;;;;;;;1.75;1.35;;;;;;;27.38;37.78;99842.91;4334242;33;33090;-71
2022/05/21 10:56:11;;;;;;;1.58;1.10;;;;;;;27.33;34.24;99845.97;4349523;32;33934;-71
2022/05/21 10:58:51;;;;;;;1.30;1.05;;;;;;;27.80;32.81;99845.12;4363770;32;33923;-71
2022/05/21 11:01:30;;;;;;;1.48;1.17;;;;;;;27.89;32.68;99844.97;4364038;32;34523;-72
2022/05/21 11:04:23;;;;;;;4.60;1.50;;;;;;;27.69;31.95;99850.47;4363596;32;33070;-71
2022/05/21 11:06:53;;;;;;;2.03;1.20;;;;;;;28.10;31.09;99848.22;4363990;32;33962;-72
2022/05/21 11:09:45;;;;;;;2.22;1.30;;;;;;;28.24;30.78;99847.72;4363736;32;35002;-72
2022/05/21 11:12:19;;;;;;;1.70;1.37;;;;;;;28.00;31.58;99846.81;4350349;32;34776;-72
2022/05/21 11:14:47;;;;;;;;;;;;;;;27.95;33.56;99858.25;4364480;32;33592;-72
2022/05/21 11:17:23;;;;;;;2.00;1.15;;;;;;;28.14;31.45;99848.28;4363867;32;34339;-72
2022/05/21 11:20:02;;;;;;;1.42;1.20;;;;;;;27.71;31.54;99856.47;4363480;32;34341;-72
2022/05/21 11:22:38;;;;;;;1.58;1.30;;;;;;;27.11;33.67;99834.25;4350399;32;34513;-72
2022/05/21 11:25:19;;;;;;;2.08;1.40;;;;;;;26.85;35.25;99843.13;4350265;32;33626;-72
2022/05/21 11:28:34;;;;;;;1.87;1.40;;;;;;;27.26;34.48;99837.44;4350357;32;34085;-73
2022/05/21 11:37:18;;;;;;;1.58;1.30;;;;;;;27.75;33.96;99828.66;4337019;32;34637;-73
2022/05/21 11:39:44;;;;;;;2.08;1.35;;;;;;;27.91;33.67;99821.13;4363617;32;34860;-72
2022/05/21 11:42:16;;;;;;;2.55;1.65;;;;;;;27.65;34.25;99818.91;4363635;32;35104;-72
2022/05/21 11:45:02;;;;;;;1.73;1.25;;;;;;;28.18;32.37;99824.06;4350395;32;34666;-72
2022/05/21 11:48:04;;;;;;;4.22;1.85;;;;;;;28.14;32.10;99814.81;4351711;32;34508;-72
2022/05/21 11:50:32;;;;;;;1.70;1.48;;;;;;;28.46;32.25;99821.06;4361232;32;33786;-73
2022/05/21 11:53:29;;;;;;;2.08;1.60;;;;;;;28.89;32.37;99821.13;4363651;32;35309;-87
2022/05/21 11:55:57;;;;;;;3.42;1.80;;;;;;;28.91;31.89;99827.13;4363023;32;34093;-72
2022/05/21 11:58:27;;;;;;;2.50;1.50;;;;;;;29.25;32.01;99817.00;4363620;32;34317;-73
2022/05/21 12:00:57;;;;;;;3.87;2.00;;;;;;;28.82;33.32;99825.37;4350357;32;33666;-72
2022/05/21 12:03:52;;;;;;;3.47;2.00;;;;;;;29.11;31.95;99823.13;4350301;32;34188;-72
2022/05/21 12:06:30;;;;;;;3.28;1.70;;;;;;;28.83;33.43;99826.19;4350098;32;33882;-72
2022/05/21 12:09:28;;;;;;;3.12;1.60;;;;;;;28.39;33.48;99818.94;4350125;32;34241;-72
2022/05/21 12:12:21;;;;;;;2.28;1.70;;;;;;;28.55;33.48;99820.88;4338317;32;34717;-73
2022/05/21 12:15:10;;;;;;;2.00;1.70;;;;;;;28.29;34.04;99813.94;4363498;32;34711;-72
2022/05/21 12:17:43;;;;;;;2.28;1.98;;;;;;;28.95;32.18;99812.06;4363398;32;34059;-72
2022/05/21 12:20:16;;;;;;;4.32;1.75;;;;;;;29.00;32.85;99811.75;4363385;32;34258;-73
2022/05/21 12:22:46;;;;;;;1.42;1.33;;;;;;;28.82;32.76;99817.00;4356545;32;34422;-71
2022/05/21 12:25:42;;;;;;;4.05;1.90;;;;;;;28.58;34.60;99817.34;4361325;32;35035;-69
2022/05/21 12:28:10;;;;;;;2.60;1.87;;;;;;;28.81;32.73;99809.00;4362042;32;34099;-69